Forside
METAR-TAF:

METAR-TAF

Lufthavne :

Okmulgee, Oklahoma, USA

Breddekreds: 35-40-05N, længdekreds: 095-56-55W, højde: 220 m

Aktuelle vejr

Denne rapport blev lavet for 34 minutter siden, kl. 07:15 UTC
Vind stille
Temperatur 5°C
Fugtighed 100%
Tryk 1023 hPa
Sigt: 16.1 km
skyfri

METAR: KOKM 220715Z AUTO 00000KT 10SM CLR 05/05 A3020 RMK AO2 T00490049

Tid: 02:49 (07:49 UTC)


TAF: fraværende

Vejrobservationer og prognoser fra mere end 4000 lufthavne (METAR og TAF).

De gule og røde prikker repræsenterer de meteorologiske stationer.

Flyt musen over at se navnet på stationen.

Så klik over at se vejr observationer og prognoser.

At skifte det kort: Klik på de grønne knapper med et sort kors for at zoome ind; på den grønne knap med en bindestreg for at zoome ud; eller på de grønne pile for tilstødende kort.


METAR-TAF: